Time;durP1;ratioP1;P1;durP2;ratioP2;P2;SDS_P1;SDS_P2;PMS_P1;PMS_P2;Temp;Humidity;BMP_temperature;BMP_pressure;BME280_temperature;BME280_humidity;BME280_pressure;Samples;Min_cycle;Max_cycle;Signal;HPM_P1;HPM_P2
2022/12/12 00:03:09;;;;;;;26.90;13.68;;;0.70;99.90;;;;;;4965253;28;20042;-78
2022/12/12 00:05:35;;;;;;;30.60;13.38;;;1.00;99.90;;;;;;4963627;28;20042;-76
2022/12/12 00:08:01;;;;;;;27.40;12.57;;;2.40;99.90;;;;;;4951357;28;20045;-77
2022/12/12 00:10:29;;;;;;;28.15;13.63;;;0.80;99.90;;;;;;4989670;28;20243;-77
2022/12/12 00:13:15;;;;;;;29.55;14.05;;;2.40;99.90;;;;;;4962034;28;20046;-76
2022/12/12 00:15:41;;;;;;;29.42;13.32;;;0.80;99.90;;;;;;4999232;28;20081;-78
2022/12/12 00:18:10;;;;;;;27.13;11.82;;;0.70;99.90;;;;;;4951429;28;20038;-79
2022/12/12 00:20:36;;;;;;;27.90;13.95;;;0.70;99.90;;;;;;4984415;28;20224;-79
2022/12/12 00:23:12;;;;;;;28.67;13.23;;;0.70;99.90;;;;;;5010742;28;20049;-80
2022/12/12 00:25:41;;;;;;;29.50;14.30;;;0.80;99.90;;;;;;5039570;28;20117;-79
2022/12/12 00:28:07;;;;;;;24.90;12.13;;;0.80;99.90;;;;;;5040529;28;20083;-77
2022/12/12 00:30:33;;;;;;;25.73;12.43;;;2.80;99.90;;;;;;5038468;28;20038;-78
2022/12/12 00:33:01;;;;;;;27.83;12.90;;;0.70;99.90;;;;;;5040137;28;20033;-79
2022/12/12 00:35:27;;;;;;;25.88;12.63;;;2.20;99.90;;;;;;5014707;28;20096;-78
2022/12/12 00:38:12;;;;;;;31.17;14.30;;;0.60;99.90;;;;;;5038538;28;20029;-78
2022/12/12 00:41:01;;;;;;;27.75;13.32;;;2.00;99.90;;;;;;5036322;28;20053;-79
2022/12/12 00:43:36;;;;;;;29.52;13.25;;;0.70;99.90;;;;;;5042179;28;20033;-78
2022/12/12 00:46:05;;;;;;;27.85;13.85;;;0.70;99.90;;;;;;5043085;28;20048;-80
2022/12/12 00:48:30;;;;;;;30.17;13.10;;;1.30;99.90;;;;;;5040448;28;20044;-77
2022/12/12 00:51:09;;;;;;;29.13;14.98;;;2.70;99.90;;;;;;5050538;28;20037;-79
2022/12/12 00:53:36;;;;;;;28.88;13.90;;;0.70;99.90;;;;;;5040757;28;20282;-77
2022/12/12 00:56:02;;;;;;;30.98;14.05;;;0.80;99.90;;;;;;5024021;28;20078;-79
2022/12/12 01:02:24;;;;;;;30.15;14.07;;;-0.50;99.90;;;;;;4996723;28;20034;-80
2022/12/12 01:12:35;;;;;;;29.15;14.07;;;0.00;99.90;;;;;;4976850;28;20153;-79
2022/12/12 01:15:19;;;;;;;;;;;;;;;;;;;;;
2022/12/12 01:18:47;;;;;;;26.88;12.45;;;0.90;99.90;;;;;;5048443;28;20268;-82
2022/12/12 01:21:25;;;;;;;30.20;13.05;;;0.90;99.90;;;;;;5043390;28;20029;-77
2022/12/12 01:24:19;;;;;;;29.92;14.18;;;-0.80;99.90;;;;;;5058333;28;20031;-79
2022/12/12 01:27:09;;;;;;;30.88;14.25;;;1.40;99.90;;;;;;5041522;28;20072;-79
2022/12/12 01:29:46;;;;;;;36.42;15.93;;;0.60;99.90;;;;;;5076495;28;20096;-78
2022/12/12 01:32:20;;;;;;;29.48;13.68;;;0.70;99.90;;;;;;5055255;28;20079;-79
2022/12/12 01:35:10;;;;;;;29.17;14.02;;;0.70;99.90;;;;;;5040278;28;20034;-79
2022/12/12 01:37:37;;;;;;;25.80;12.48;;;0.90;99.90;;;;;;5044529;28;20037;-80
2022/12/12 01:40:32;;;;;;;26.58;12.98;;;1.70;99.90;;;;;;5042459;28;20338;-79
2022/12/12 01:43:12;;;;;;;28.40;12.48;;;0.90;99.90;;;;;;5032793;28;20064;-79
2022/12/12 01:45:57;;;;;;;30.45;13.27;;;1.10;99.90;;;;;;5059739;28;20083;-80
2022/12/12 01:48:28;;;;;;;26.60;12.25;;;0.70;99.90;;;;;;5037695;28;20219;-79
2022/12/12 01:51:09;;;;;;;30.95;13.82;;;0.80;99.90;;;;;;5073361;28;20044;-80
2022/12/12 01:53:36;;;;;;;25.38;12.70;;;2.80;99.90;;;;;;5031030;28;20033;-76
2022/12/12 01:56:14;;;;;;;32.53;13.38;;;2.60;99.90;;;;;;5038901;28;20050;-78
2022/12/12 01:58:55;;;;;;;29.88;13.63;;;1.90;99.90;;;;;;5028307;28;20100;-79
2022/12/12 02:01:41;;;;;;;26.73;13.00;;;1.90;99.90;;;;;;5041964;28;20163;-78
2022/12/12 02:04:08;;;;;;;27.65;12.75;;;2.40;99.90;;;;;;5061757;28;20089;-78
2022/12/12 02:06:34;;;;;;;29.95;13.30;;;0.90;99.90;;;;;;5038758;28;20046;-77
2022/12/12 02:09:21;;;;;;;28.83;13.32;;;-0.60;99.90;;;;;;5025608;28;20102;-79
2022/12/12 02:11:49;;;;;;;29.88;14.25;;;0.90;99.90;;;;;;5058764;28;20033;-76
2022/12/12 02:14:27;;;;;;;33.15;15.27;;;2.30;99.90;;;;;;5035592;28;20226;-78
2022/12/12 02:17:03;;;;;;;26.60;12.65;;;0.90;99.90;;;;;;5029909;28;20040;-79
2022/12/12 02:20:13;;;;;;;30.35;12.35;;;0.70;99.90;;;;;;5058925;28;20040;-80
2022/12/12 02:23:13;;;;;;;29.00;13.07;;;0.70;99.90;;;;;;5013312;28;20101;-79
2022/12/12 02:26:00;;;;;;;27.65;13.30;;;0.60;99.90;;;;;;5051599;28;20078;-79
2022/12/12 02:28:46;;;;;;;27.90;13.13;;;0.60;99.90;;;;;;5053377;28;20060;-79
2022/12/12 02:31:25;;;;;;;28.90;15.00;;;0.60;99.90;;;;;;5054779;28;20040;-78
2022/12/12 02:34:12;;;;;;;28.58;13.32;;;0.60;99.90;;;;;;5035891;28;20057;-78
2022/12/12 02:36:57;;;;;;;26.52;12.25;;;0.60;99.90;;;;;;5038495;28;20099;-78
2022/12/12 02:40:03;;;;;;;27.60;14.13;;;1.30;99.90;;;;;;5046029;28;20032;-77
2022/12/12 02:42:44;;;;;;;29.17;12.38;;;0.60;99.90;;;;;;5020035;28;20033;-78
2022/12/12 02:45:30;;;;;;;27.63;13.63;;;0.60;99.90;;;;;;5031771;28;20033;-77
2022/12/12 02:48:09;;;;;;;26.83;12.65;;;0.60;99.90;;;;;;5033776;28;20033;-78
2022/12/12 02:50:38;;;;;;;24.77;12.00;;;1.50;99.90;;;;;;5054797;28;20041;-77
2022/12/12 02:53:15;;;;;;;26.38;12.57;;;0.90;99.90;;;;;;5034551;28;20025;-77
2022/12/12 02:55:48;;;;;;;26.70;12.07;;;1.90;99.90;;;;;;5056473;28;20031;-80
2022/12/12 02:58:18;;;;;;;24.02;10.95;;;0.70;99.90;;;;;;5046348;28;20083;-78
2022/12/12 03:01:10;;;;;;;26.70;13.23;;;0.60;99.90;;;;;;5032561;28;20043;-77
2022/12/12 03:07:50;;;;;;;23.40;12.13;;;0.60;99.90;;;;;;5043401;28;20068;-79
2022/12/12 03:10:57;;;;;;;23.42;11.05;;;1.10;99.90;;;;;;5050690;28;20120;-78
2022/12/12 03:13:32;;;;;;;25.88;12.60;;;2.40;99.90;;;;;;5040859;28;20075;-76
2022/12/12 03:23:19;;;;;;;27.38;13.45;;;0.80;99.90;;;;;;4948245;28;20035;-76
2022/12/12 03:29:12;;;;;;;25.20;12.02;;;0.50;99.90;;;;;;4974650;28;20037;-78
2022/12/12 03:31:45;;;;;;;24.60;12.48;;;-0.20;99.90;;;;;;5053186;28;20037;-79
2022/12/12 03:34:36;;;;;;;24.88;11.40;;;0.40;99.90;;;;;;5036632;28;20036;-77
2022/12/12 03:37:39;;;;;;;24.75;11.98;;;1.00;99.90;;;;;;5047887;28;20037;-79
2022/12/12 03:40:20;;;;;;;26.52;12.95;;;-0.60;99.90;;;;;;5035732;28;20044;-80
2022/12/12 03:43:06;;;;;;;27.63;12.15;;;-0.20;99.90;;;;;;5044074;28;20028;-81
2022/12/12 03:45:38;;;;;;;24.30;12.13;;;0.50;99.90;;;;;;5047402;28;20076;-81
2022/12/12 03:48:14;;;;;;;25.13;12.95;;;0.50;99.90;;;;;;5054403;28;20044;-80
2022/12/12 03:50:47;;;;;;;26.27;12.45;;;2.00;99.90;;;;;;5050280;28;20052;-78
2022/12/12 03:53:32;;;;;;;27.15;11.82;;;2.30;99.90;;;;;;5020158;28;20052;-80
2022/12/12 03:56:09;;;;;;;28.02;12.77;;;0.50;99.90;;;;;;5040718;28;20029;-80
2022/12/12 03:59:02;;;;;;;29.05;14.32;;;0.40;99.90;;;;;;5034621;28;20087;-77
2022/12/12 04:01:38;;;;;;;26.13;12.20;;;0.60;99.90;;;;;;5039311;28;20328;-80
2022/12/12 04:04:13;;;;;;;23.05;11.40;;;0.40;99.90;;;;;;5041220;28;20051;-79
2022/12/12 04:07:01;;;;;;;25.05;11.95;;;0.50;99.90;;;;;;5057142;28;20052;-79
2022/12/12 04:16:16;;;;;;;20.88;10.75;;;0.70;99.90;;;;;;5018199;28;20050;-80
2022/12/12 04:18:52;;;;;;;24.38;11.20;;;1.70;99.90;;;;;;5025093;28;20041;-79
2022/12/12 04:24:44;;;;;;;21.27;10.57;;;0.50;99.90;;;;;;5044834;28;20037;-77
2022/12/12 04:31:46;;;;;;;24.95;12.07;;;1.20;99.90;;;;;;4995465;28;20085;-80
2022/12/12 04:34:37;;;;;;;24.40;12.45;;;0.40;99.90;;;;;;5056533;28;20056;-79
2022/12/12 04:37:06;;;;;;;23.58;11.13;;;0.50;99.90;;;;;;5027989;28;20029;-78
2022/12/12 04:39:55;;;;;;;24.35;11.93;;;1.70;99.90;;;;;;5048606;28;20352;-79
2022/12/12 04:42:25;;;;;;;24.77;12.23;;;0.20;99.90;;;;;;5043569;28;20033;-78
2022/12/12 04:44:54;;;;;;;27.48;12.82;;;0.60;99.90;;;;;;5041200;28;20041;-79
2022/12/12 04:47:25;;;;;;;28.58;11.95;;;2.50;99.90;;;;;;5040020;28;20074;-78
2022/12/12 04:49:52;;;;;;;21.65;11.63;;;2.00;99.90;;;;;;5046711;28;20039;-80
2022/12/12 04:52:24;;;;;;;24.23;11.52;;;1.20;99.90;;;;;;5057496;28;20106;-81
2022/12/12 04:55:14;;;;;;;26.17;12.85;;;-0.80;99.90;;;;;;5038668;28;20057;-78
2022/12/12 04:57:47;;;;;;;24.50;12.02;;;0.50;99.90;;;;;;5029567;28;20035;-78
2022/12/12 05:00:13;;;;;;;24.45;11.95;;;1.00;99.90;;;;;;5054128;28;20262;-79
2022/12/12 05:02:39;;;;;;;25.00;11.93;;;0.40;99.90;;;;;;5064278;28;20211;-81
2022/12/12 05:05:38;;;;;;;24.15;12.60;;;0.50;99.90;;;;;;5039992;28;20029;-78
2022/12/12 05:11:59;;;;;;;21.40;11.38;;;-1.00;99.90;;;;;;4960345;28;20050;-79
2022/12/12 05:14:56;;;;;;;;;;;;;;;;;;;;;
2022/12/12 05:18:22;;;;;;;23.20;11.90;;;0.40;99.90;;;;;;4956711;29;20043;-77
2022/12/12 05:20:49;;;;;;;23.85;11.35;;;0.50;99.90;;;;;;4977393;28;20029;-79
2022/12/12 05:23:14;;;;;;;22.88;10.77;;;-1.00;99.90;;;;;;5075947;28;20370;-76
2022/12/12 05:25:43;;;;;;;25.98;12.25;;;0.70;99.90;;;;;;5039762;28;20032;-78
2022/12/12 05:28:09;;;;;;;22.23;11.10;;;1.70;99.90;;;;;;5040897;28;20080;-77
2022/12/12 05:30:35;;;;;;;21.33;11.23;;;0.40;99.90;;;;;;5032316;28;20034;-80
2022/12/12 05:33:00;;;;;;;24.02;11.95;;;0.50;99.90;;;;;;5030199;28;20099;-79
2022/12/12 05:35:27;;;;;;;23.33;11.70;;;0.40;99.90;;;;;;5027336;28;20040;-80
2022/12/12 05:37:52;;;;;;;23.08;11.32;;;0.40;99.90;;;;;;5052935;28;20038;-79
2022/12/12 05:40:26;;;;;;;25.13;12.02;;;0.40;99.90;;;;;;5032812;28;20029;-78
2022/12/12 05:42:52;;;;;;;23.77;11.60;;;1.80;99.90;;;;;;5042546;28;20037;-79
2022/12/12 05:45:17;;;;;;;23.52;11.40;;;0.40;99.90;;;;;;5025760;28;20128;-79
2022/12/12 05:47:43;;;;;;;23.17;10.75;;;0.40;99.90;;;;;;5024424;28;20028;-78
2022/12/12 05:50:09;;;;;;;22.98;11.10;;;0.30;99.90;;;;;;5028971;28;20032;-79
2022/12/12 05:52:34;;;;;;;22.88;10.85;;;0.40;99.90;;;;;;5044925;28;20021;-79
2022/12/12 05:55:00;;;;;;;19.42;9.65;;;1.40;99.90;;;;;;5037715;28;20059;-77
2022/12/12 05:57:26;;;;;;;20.85;10.75;;;0.30;99.90;;;;;;5020175;28;20044;-79
2022/12/12 05:59:52;;;;;;;18.67;9.90;;;0.40;99.90;;;;;;5029417;28;20037;-80
2022/12/12 06:02:18;;;;;;;22.10;11.07;;;2.20;99.90;;;;;;5001972;28;20050;-78
2022/12/12 06:04:47;;;;;;;19.83;10.52;;;0.30;99.90;;;;;;5027769;28;20363;-79
2022/12/12 06:07:13;;;;;;;23.40;11.73;;;0.80;99.90;;;;;;5011318;28;20033;-81
2022/12/12 06:09:39;;;;;;;22.88;10.43;;;2.20;99.90;;;;;;5023098;28;20084;-81
2022/12/12 06:12:07;;;;;;;23.83;11.38;;;0.80;99.90;;;;;;5021312;28;20368;-80
2022/12/12 06:14:33;;;;;;;21.33;11.20;;;0.40;99.90;;;;;;5046115;28;20334;-81
2022/12/12 06:16:59;;;;;;;23.35;11.50;;;0.30;99.90;;;;;;5013574;28;20041;-81
2022/12/12 06:19:25;;;;;;;22.50;10.82;;;0.30;99.90;;;;;;5004254;28;20076;-79
2022/12/12 06:21:51;;;;;;;24.60;11.23;;;0.30;99.90;;;;;;5024426;28;20095;-76
2022/12/12 06:24:17;;;;;;;25.35;11.82;;;0.30;99.90;;;;;;5036476;28;20091;-78
2022/12/12 06:26:43;;;;;;;20.65;10.85;;;1.00;99.90;;;;;;5060338;28;20072;-77
2022/12/12 06:29:08;;;;;;;21.52;10.77;;;0.60;99.90;;;;;;5037271;28;20036;-76
2022/12/12 06:32:03;;;;;;;22.88;10.52;;;0.30;99.90;;;;;;5023927;28;20090;-77
2022/12/12 06:35:16;;;;;;;21.23;10.35;;;-1.00;99.90;;;;;;5036915;28;20064;-77
2022/12/12 06:38:52;;;;;;;21.13;11.05;;;-1.40;99.90;;;;;;5016883;28;20346;-78
2022/12/12 06:41:18;;;;;;;24.17;11.05;;;0.20;99.90;;;;;;5037775;28;20030;-80
2022/12/12 06:43:44;;;;;;;22.30;10.57;;;1.80;99.90;;;;;;5059163;28;20100;-77
2022/12/12 06:46:22;;;;;;;25.02;12.23;;;2.10;99.90;;;;;;5033570;28;20037;-77
2022/12/12 06:48:49;;;;;;;23.27;11.60;;;0.20;99.90;;;;;;5039241;28;20464;-79
2022/12/12 06:51:50;;;;;;;22.08;10.68;;;0.30;99.90;;;;;;5041251;28;20051;-79
2022/12/12 06:54:21;;;;;;;22.02;11.00;;;0.30;99.90;;;;;;5064084;28;20104;-77
2022/12/12 06:56:48;;;;;;;21.45;10.32;;;1.60;99.90;;;;;;5040467;28;20017;-80
2022/12/12 06:59:29;;;;;;;22.13;10.77;;;1.60;99.90;;;;;;5004894;28;20034;-79
2022/12/12 07:02:35;;;;;;;25.73;11.55;;;0.90;99.90;;;;;;5036903;28;20037;-79
2022/12/12 07:05:01;;;;;;;22.95;10.40;;;0.80;99.90;;;;;;5074405;28;20045;-79
2022/12/12 07:07:31;;;;;;;24.08;11.02;;;2.20;99.90;;;;;;5055461;28;20068;-79
2022/12/12 07:09:56;;;;;;;23.35;11.18;;;0.60;99.90;;;;;;5034769;28;20045;-79
2022/12/12 07:13:05;;;;;;;22.73;10.40;;;1.10;99.90;;;;;;5030317;28;20037;-80
2022/12/12 07:15:33;;;;;;;23.83;11.38;;;-1.10;99.90;;;;;;5035352;28;20220;-77
2022/12/12 07:18:15;;;;;;;23.58;11.38;;;2.10;99.90;;;;;;5004974;28;20037;-77
2022/12/12 07:20:43;;;;;;;24.70;11.30;;;0.20;99.90;;;;;;5039311;28;20040;-81
2022/12/12 07:23:10;;;;;;;22.30;12.00;;;2.30;99.90;;;;;;5027325;28;20044;-79
2022/12/12 07:25:37;;;;;;;22.42;11.38;;;0.30;99.90;;;;;;5055993;28;20037;-76
2022/12/12 07:28:04;;;;;;;21.17;10.90;;;1.70;99.90;;;;;;5025424;28;20440;-80
2022/12/12 07:30:30;;;;;;;22.75;12.02;;;0.40;99.90;;;;;;5005017;28;20040;-80
2022/12/12 07:36:05;;;;;;;22.50;10.95;;;0.30;99.90;;;;;;5046459;28;20037;-80
2022/12/12 07:38:33;;;;;;;21.30;11.32;;;0.30;99.90;;;;;;5043724;28;20030;-76
2022/12/12 07:41:08;;;;;;;21.63;10.98;;;0.50;99.90;;;;;;5046278;28;20401;-76
2022/12/12 07:43:38;;;;;;;23.77;12.18;;;0.40;99.90;;;;;;5038877;28;20029;-77
2022/12/12 07:46:52;;;;;;;22.17;10.90;;;0.30;99.90;;;;;;5021999;28;20036;-79
2022/12/12 07:49:18;;;;;;;24.30;12.38;;;-0.50;99.90;;;;;;5024860;28;20029;-79
2022/12/12 07:55:41;;;;;;;20.70;11.05;;;-1.00;99.90;;;;;;4988312;28;20041;-80
2022/12/12 07:58:10;;;;;;;21.88;11.55;;;0.30;99.90;;;;;;4981374;28;20221;-79
2022/12/12 08:00:39;;;;;;;20.35;10.07;;;0.50;99.90;;;;;;4981989;28;20033;-79
2022/12/12 08:03:07;;;;;;;23.23;11.25;;;0.30;99.90;;;;;;5022252;28;20267;-80
2022/12/12 08:05:32;;;;;;;22.73;10.68;;;1.00;99.90;;;;;;5049602;28;20034;-79
2022/12/12 08:07:58;;;;;;;20.95;11.35;;;2.40;99.90;;;;;;5025700;28;20030;-80
2022/12/12 08:10:24;;;;;;;23.42;11.23;;;0.30;99.90;;;;;;5010972;28;20026;-78
2022/12/12 08:12:58;;;;;;;21.13;11.02;;;0.50;99.90;;;;;;5027727;28;20347;-79
2022/12/12 08:15:38;;;;;;;24.57;11.97;;;0.50;99.90;;;;;;5027492;28;20086;-76
2022/12/12 08:18:06;;;;;;;18.88;10.52;;;0.80;99.90;;;;;;5045445;28;20040;-81
2022/12/12 08:20:32;;;;;;;21.95;11.20;;;0.40;99.90;;;;;;5020423;28;20214;-79
2022/12/12 08:23:03;;;;;;;21.85;10.57;;;0.40;99.90;;;;;;4995662;28;20076;-77
2022/12/12 08:25:30;;;;;;;21.83;11.65;;;0.50;99.90;;;;;;5032173;28;20044;-79
2022/12/12 08:27:56;;;;;;;21.00;11.43;;;0.50;99.90;;;;;;5002216;28;20244;-79
2022/12/12 08:30:22;;;;;;;22.27;11.43;;;1.40;99.90;;;;;;5040266;28;20036;-78
2022/12/12 08:33:02;;;;;;;23.17;11.68;;;2.30;99.90;;;;;;5057623;28;20196;-77
2022/12/12 08:35:33;;;;;;;20.75;11.20;;;0.30;99.90;;;;;;5023699;28;20121;-80
2022/12/12 08:38:10;;;;;;;21.92;11.27;;;0.50;99.90;;;;;;5057180;28;20185;-79
2022/12/12 08:40:36;;;;;;;23.67;12.57;;;2.10;99.90;;;;;;5044834;28;20113;-78
2022/12/12 08:43:01;;;;;;;21.20;10.95;;;2.70;99.90;;;;;;5027176;28;20467;-77
2022/12/12 08:45:27;;;;;;;21.02;11.15;;;0.60;99.90;;;;;;5065761;28;20029;-78
2022/12/12 08:47:53;;;;;;;20.42;11.50;;;1.30;99.90;;;;;;5057043;28;20037;-79
2022/12/12 08:50:19;;;;;;;22.42;11.73;;;0.60;99.90;;;;;;5042322;28;20108;-79
2022/12/12 08:56:15;;;;;;;23.15;11.32;;;-0.90;99.90;;;;;;5037991;28;20068;-78
2022/12/12 08:58:42;;;;;;;21.05;10.27;;;0.70;99.90;;;;;;5030428;28;20168;-78
2022/12/12 09:01:15;;;;;;;20.70;11.65;;;0.60;99.90;;;;;;5004227;28;20045;-78
2022/12/12 09:04:10;;;;;;;19.25;10.70;;;2.10;99.90;;;;;;5023855;28;20156;-79
2022/12/12 09:06:47;;;;;;;19.15;9.43;;;0.70;99.90;;;;;;5056385;28;20216;-81
2022/12/12 09:09:16;;;;;;;19.67;9.68;;;0.90;99.90;;;;;;5011795;28;20103;-80
2022/12/12 09:11:43;;;;;;;19.42;9.95;;;0.80;99.90;;;;;;5026927;28;20083;-77
2022/12/12 09:14:31;;;;;;;18.77;10.07;;;2.00;99.90;;;;;;5055859;28;20060;-79
2022/12/12 09:17:02;;;;;;;21.88;11.18;;;-0.20;99.90;;;;;;5038164;28;20383;-80
2022/12/12 09:19:58;;;;;;;19.63;10.35;;;0.70;99.90;;;;;;5018538;28;20029;-80
2022/12/12 09:22:30;;;;;;;21.88;11.57;;;1.00;99.90;;;;;;5065217;28;20398;-78
2022/12/12 09:25:01;;;;;;;19.73;10.40;;;2.80;99.90;;;;;;5038257;28;20134;-78
2022/12/12 09:27:27;;;;;;;19.05;10.70;;;0.80;99.90;;;;;;5039387;28;20026;-77
2022/12/12 09:29:55;;;;;;;20.25;10.82;;;2.30;99.90;;;;;;5024495;28;20343;-79
2022/12/12 09:32:21;;;;;;;22.58;11.90;;;0.80;99.90;;;;;;5043974;28;20225;-79
2022/12/12 09:34:47;;;;;;;20.25;10.25;;;1.00;99.90;;;;;;5065332;28;20025;-78
2022/12/12 09:37:13;;;;;;;18.85;10.38;;;2.10;99.90;;;;;;5041441;28;20096;-78
2022/12/12 09:39:39;;;;;;;21.27;10.70;;;1.50;99.90;;;;;;5054795;28;20029;-78
2022/12/12 09:42:44;;;;;;;18.23;10.52;;;0.90;99.90;;;;;;5008598;28;20221;-77
2022/12/12 09:45:15;;;;;;;22.92;11.55;;;0.90;99.90;;;;;;5052494;28;20111;-78
2022/12/12 09:47:44;;;;;;;19.67;10.50;;;2.10;99.90;;;;;;5038736;28;20036;-77
2022/12/12 09:50:34;;;;;;;19.55;11.73;;;2.20;99.90;;;;;;5021658;28;20118;-77
2022/12/12 09:53:03;;;;;;;20.63;11.00;;;1.00;99.90;;;;;;5053416;28;20026;-77
2022/12/12 09:56:08;;;;;;;18.92;10.48;;;1.10;99.90;;;;;;5032343;28;20038;-77
2022/12/12 09:58:48;;;;;;;18.27;10.43;;;1.10;99.90;;;;;;5035977;28;20053;-78
2022/12/12 10:01:39;;;;;;;18.17;10.23;;;1.10;99.90;;;;;;5022128;28;20029;-77
2022/12/12 10:04:32;;;;;;;17.80;10.20;;;1.30;99.90;;;;;;5054915;28;20038;-76
2022/12/12 10:07:39;;;;;;;19.55;10.60;;;1.10;99.90;;;;;;5001847;28;20378;-77
2022/12/12 10:10:32;;;;;;;20.95;11.38;;;1.20;99.90;;;;;;5018552;28;20048;-75
2022/12/12 10:13:03;;;;;;;16.00;9.43;;;1.20;99.90;;;;;;5050933;28;20052;-76
2022/12/12 10:15:43;;;;;;;21.98;13.20;;;1.30;99.90;;;;;;5054344;28;20045;-77
2022/12/12 10:18:33;;;;;;;21.55;10.32;;;1.20;99.90;;;;;;5026183;28;20037;-78
2022/12/12 10:21:39;;;;;;;19.73;10.95;;;1.20;99.90;;;;;;5037309;28;20056;-76
2022/12/12 10:24:38;;;;;;;19.63;10.73;;;1.30;99.90;;;;;;5042230;28;20311;-77
2022/12/12 10:27:12;;;;;;;17.13;9.82;;;0.50;99.90;;;;;;5043625;28;20060;-77
2022/12/12 10:29:46;;;;;;;19.27;9.90;;;2.60;99.90;;;;;;5055122;28;20482;-77
2022/12/12 10:33:09;;;;;;;16.25;9.35;;;1.30;99.90;;;;;;5050006;28;20224;-77
2022/12/12 10:35:46;;;;;;;19.33;11.25;;;1.40;99.90;;;;;;5004066;28;20145;-76
2022/12/12 10:38:46;;;;;;;21.20;11.35;;;1.80;99.90;;;;;;4999613;28;20040;-76
2022/12/12 10:41:44;;;;;;;19.58;9.30;;;1.90;99.90;;;;;;5032981;28;20056;-78
2022/12/12 10:44:51;;;;;;;19.30;10.20;;;1.90;99.90;;;;;;5037199;28;20100;-77
2022/12/12 10:47:22;;;;;;;20.75;11.13;;;1.70;99.90;;;;;;5051160;28;20033;-76
2022/12/12 10:50:13;;;;;;;19.08;9.55;;;2.80;99.90;;;;;;5024072;28;20549;-76
2022/12/12 10:52:38;;;;;;;19.13;10.18;;;1.50;99.90;;;;;;5028612;28;20444;-77
2022/12/12 10:55:24;;;;;;;18.20;10.38;;;2.90;99.90;;;;;;5036278;28;20029;-77
2022/12/12 10:58:00;;;;;;;;;;;2.80;99.90;;;;;;5051481;28;20045;-76
2022/12/12 11:00:33;;;;;;;16.40;10.45;;;2.40;99.90;;;;;;5067160;28;19951;-83
2022/12/12 11:06:39;;;;;;;18.65;10.55;;;4.20;99.90;;;;;;5028039;28;20087;-78
2022/12/12 11:09:29;;;;;;;17.52;10.55;;;2.50;99.90;;;;;;5026654;28;20041;-76
2022/12/12 11:12:10;;;;;;;16.42;8.85;;;3.70;99.90;;;;;;5027426;28;20060;-76
2022/12/12 11:14:45;;;;;;;15.65;9.98;;;5.20;99.90;;;;;;5039575;28;20120;-79
2022/12/12 11:17:20;;;;;;;16.98;10.68;;;3.90;99.90;;;;;;5028492;28;20049;-80
2022/12/12 11:20:15;;;;;;;16.52;9.93;;;2.80;99.90;;;;;;5057037;28;20063;-77
2022/12/12 11:22:41;;;;;;;16.60;9.82;;;2.50;99.90;;;;;;5024251;28;20068;-79
2022/12/12 11:25:28;;;;;;;19.25;10.55;;;2.20;99.90;;;;;;5048823;28;20033;-76
2022/12/12 11:27:58;;;;;;;18.70;11.25;;;3.40;99.90;;;;;;5030977;28;20043;-77
2022/12/12 11:30:41;;;;;;;20.92;11.70;;;2.40;99.90;;;;;;5057844;28;20256;-77
2022/12/12 11:33:42;;;;;;;22.42;12.65;;;1.80;99.90;;;;;;5062121;28;20025;-77
2022/12/12 11:36:30;;;;;;;23.20;12.30;;;3.00;99.90;;;;;;5053178;28;20032;-78
2022/12/12 11:39:01;;;;;;;24.58;12.75;;;0.50;99.90;;;;;;5042397;28;20030;-76
2022/12/12 11:42:08;;;;;;;24.45;12.18;;;2.00;99.90;;;;;;5040622;28;20037;-75
2022/12/12 11:45:26;;;;;;;21.60;11.30;;;2.10;99.90;;;;;;5039869;28;20055;-76
2022/12/12 11:48:24;;;;;;;26.65;14.93;;;1.80;99.90;;;;;;5037827;28;20042;-77
2022/12/12 11:50:56;;;;;;;23.55;13.05;;;1.50;99.90;;;;;;4993053;28;20057;-76
2022/12/12 11:53:38;;;;;;;27.45;13.85;;;1.80;99.90;;;;;;5024978;28;20521;-76
2022/12/12 11:56:11;;;;;;;24.25;12.02;;;1.70;99.90;;;;;;5031885;28;20029;-76
2022/12/12 11:58:51;;;;;;;27.10;13.48;;;1.40;99.90;;;;;;5042640;28;20025;-76
2022/12/12 12:01:55;;;;;;;24.30;13.50;;;2.80;99.90;;;;;;5066617;28;20057;-76
2022/12/12 12:04:46;;;;;;;25.35;13.65;;;1.50;99.90;;;;;;5022330;28;20048;-74
2022/12/12 12:07:32;;;;;;;25.75;14.27;;;1.50;99.90;;;;;;5053467;28;20044;-76
2022/12/12 12:10:30;;;;;;;27.05;14.90;;;1.50;99.90;;;;;;5058193;28;20094;-75
2022/12/12 12:13:00;;;;;;;24.65;14.45;;;1.50;99.90;;;;;;5027808;28;20033;-77
2022/12/12 12:15:34;;;;;;;26.13;13.68;;;1.60;99.90;;;;;;5062495;28;20387;-77
2022/12/12 12:18:37;;;;;;;19.85;11.35;;;1.70;99.90;;;;;;5022941;28;20089;-77
2022/12/12 12:22:02;;;;;;;24.52;13.32;;;1.40;99.90;;;;;;5024657;28;20036;-76
2022/12/12 12:24:58;;;;;;;24.85;12.57;;;1.40;99.90;;;;;;4995209;28;20039;-76
2022/12/12 12:30:54;;;;;;;25.80;12.88;;;1.30;99.90;;;;;;4981184;28;20272;-76
2022/12/12 12:38:27;;;;;;;;;;;;;;;;;;;;;
2022/12/12 12:42:03;;;;;;;27.52;13.15;;;1.40;99.90;;;;;;4983565;28;20113;-75
2022/12/12 12:44:59;;;;;;;26.23;12.80;;;3.10;99.90;;;;;;4977311;28;20034;-76
2022/12/12 12:48:25;;;;;;;23.92;13.15;;;1.50;99.90;;;;;;4976920;28;20464;-77
2022/12/12 12:51:12;;;;;;;24.00;12.27;;;1.80;99.90;;;;;;4935942;29;20051;-77
2022/12/12 13:00:54;;;;;;;20.38;10.55;;;-0.50;99.90;;;;;;5004291;28;20040;-77
2022/12/12 13:03:56;;;;;;;23.40;12.05;;;1.30;99.90;;;;;;5020567;28;20025;-76
2022/12/12 13:10:48;;;;;;;23.45;12.43;;;0.40;99.90;;;;;;4985589;28;20035;-76
2022/12/12 13:20:12;;;;;;;25.13;13.25;;;1.40;99.90;;;;;;5013506;28;20275;-77
2022/12/12 13:23:29;;;;;;;27.08;14.38;;;1.50;99.90;;;;;;5029877;28;20148;-76
2022/12/12 13:26:58;;;;;;;22.17;12.45;;;1.40;99.90;;;;;;5039737;28;20579;-76
2022/12/12 13:30:29;;;;;;;;;;;;;;;;;;;;;
2022/12/12 13:33:47;;;;;;;29.27;12.93;;;0.00;99.90;;;;;;5037994;28;20037;-76
2022/12/12 13:41:10;;;;;;;23.38;12.48;;;0.90;99.90;;;;;;5022155;28;20223;-77
2022/12/12 13:44:35;;;;;;;26.85;13.48;;;1.20;99.90;;;;;;5039561;28;20916;-76
2022/12/12 13:48:40;;;;;;;22.98;11.63;;;0.30;99.90;;;;;;5033150;28;20230;-77
2022/12/12 13:51:39;;;;;;;25.20;12.82;;;2.80;99.90;;;;;;4982990;28;20064;-77
2022/12/12 13:54:29;;;;;;;26.05;12.02;;;1.50;99.90;;;;;;5011491;28;20060;-76
2022/12/12 13:57:12;;;;;;;22.48;11.98;;;1.40;99.90;;;;;;5019621;28;20345;-74
2022/12/12 13:59:52;;;;;;;22.98;12.70;;;1.40;99.90;;;;;;5035776;28;20061;-75
2022/12/12 14:14:25;;;;;;;20.73;11.40;;;0.80;99.90;;;;;;5011542;28;20267;-76
2022/12/12 14:17:49;;;;;;;;;;;0.70;99.90;;;;;;5010453;28;20125;-75
2022/12/12 14:21:19;;;;;;;23.73;11.38;;;1.20;99.90;;;;;;5021497;28;19975;-75
2022/12/12 14:25:00;;;;;;;22.95;12.23;;;1.40;99.90;;;;;;5044405;28;20071;-76
2022/12/12 14:28:35;;;;;;;;;;;;;;;;;;;;;
2022/12/12 14:31:31;;;;;;;19.33;10.13;;;2.50;99.90;;;;;;5017627;28;20287;-76
2022/12/12 14:34:26;;;;;;;24.25;12.77;;;-0.30;99.90;;;;;;5020851;28;20088;-76
2022/12/12 14:41:37;;;;;;;22.45;11.35;;;1.20;99.90;;;;;;4977325;28;20046;-76
2022/12/12 14:44:32;;;;;;;20.77;10.98;;;2.70;99.90;;;;;;4971202;28;20058;-76
2022/12/12 14:47:28;;;;;;;24.33;13.13;;;1.40;99.90;;;;;;4948987;28;20039;-76
2022/12/12 14:50:41;;;;;;;22.35;11.93;;;-0.40;99.90;;;;;;4935420;28;20549;-75
2022/12/12 14:54:38;;;;;;;22.83;11.47;;;1.20;99.90;;;;;;4956686;28;20234;-77
2022/12/12 14:57:42;;;;;;;;;;;;;;;;;;;;;
2022/12/12 15:01:25;;;;;;;28.45;12.27;;;0.20;99.90;;;;;;4944687;29;20047;-77
2022/12/12 15:08:30;;;;;;;24.77;12.10;;;0.40;99.90;;;;;;4939194;29;20086;-77
2022/12/12 15:15:54;;;;;;;;;;;;;;;;;;;;;
2022/12/12 15:19:06;;;;;;;19.85;10.55;;;-0.50;99.90;;;;;;4866656;29;20043;-76
2022/12/12 15:23:04;;;;;;;20.08;10.48;;;2.30;99.90;;;;;;4931854;29;20158;-77
2022/12/12 15:31:13;;;;;;;;;;;;;;;;;;;;;
2022/12/12 15:34:40;;;;;;;19.95;10.70;;;1.80;99.90;;;;;;4926326;28;20046;-76
2022/12/12 15:38:37;;;;;;;16.20;8.70;;;-0.50;99.90;;;;;;4919231;29;20441;-76
2022/12/12 15:44:34;;;;;;;18.02;9.40;;;0.20;99.90;;;;;;4969923;28;20095;-75
2022/12/12 15:47:33;;;;;;;19.35;10.70;;;1.00;99.90;;;;;;5014541;28;20273;-77
2022/12/12 15:50:46;;;;;;;22.27;10.75;;;0.60;99.90;;;;;;5028386;28;20088;-75
2022/12/12 15:54:16;;;;;;;17.42;9.70;;;2.10;99.90;;;;;;5006031;28;20053;-76
2022/12/12 16:00:31;;;;;;;17.05;9.18;;;0.70;99.90;;;;;;5024316;28;20392;-76
2022/12/12 16:03:20;;;;;;;22.80;10.32;;;-0.10;99.90;;;;;;5031906;28;20061;-76
2022/12/12 16:06:38;;;;;;;21.20;11.65;;;0.00;99.90;;;;;;5051032;28;20041;-75
2022/12/12 16:09:23;;;;;;;18.05;10.27;;;2.00;99.90;;;;;;5021119;28;20050;-74
2022/12/12 16:11:58;;;;;;;19.52;10.55;;;-0.20;99.90;;;;;;5024324;28;20063;-75
2022/12/12 16:15:21;;;;;;;17.55;10.27;;;-0.20;99.90;;;;;;5075402;28;20032;-74